Time;durP1;ratioP1;P1;durP2;ratioP2;P2;SDS_P1;SDS_P2;PMS_P1;PMS_P2;Temp;Humidity;BMP_temperature;BMP_pressure;BME280_temperature;BME280_humidity;BME280_pressure;Samples;Min_cycle;Max_cycle;Signal;HPM_P1;HPM_P2
2024/01/19 00:03:21;;;;;;;28.75;16.55;;;-3.20;99.90;;;;;;7344068;32;20127;-55
2024/01/19 00:07:23;;;;;;;33.42;17.75;;;-3.00;99.90;;;;;;7343105;32;20480;-55
2024/01/19 00:11:25;;;;;;;42.53;18.75;;;-2.80;99.90;;;;;;7346551;32;20124;-55
2024/01/19 00:15:27;;;;;;;35.55;19.12;;;-2.50;99.90;;;;;;7342159;32;20192;-55
2024/01/19 00:19:40;;;;;;;33.42;18.55;;;-2.40;99.90;;;;;;7350926;32;20137;-55
2024/01/19 00:23:42;;;;;;;37.55;20.00;;;-2.20;99.90;;;;;;7338098;32;20194;-55
2024/01/19 00:27:45;;;;;;;35.30;19.77;;;-2.30;99.90;;;;;;7347064;32;20107;-55
2024/01/19 00:31:48;;;;;;;37.78;19.65;;;-2.10;99.90;;;;;;7335758;32;20525;-54
2024/01/19 00:35:49;;;;;;;37.95;20.58;;;-2.10;99.90;;;;;;7343847;32;20259;-55
2024/01/19 00:39:51;;;;;;;37.22;20.20;;;-2.00;99.90;;;;;;7334448;32;20412;-55
2024/01/19 00:43:53;;;;;;;40.90;20.45;;;-1.90;99.90;;;;;;7342641;32;20478;-55
2024/01/19 00:47:55;;;;;;;36.13;19.45;;;-2.00;99.90;;;;;;7340118;32;20111;-55
2024/01/19 00:51:57;;;;;;;38.05;19.87;;;-1.90;99.90;;;;;;7337084;32;20589;-54
2024/01/19 00:55:58;;;;;;;31.80;18.40;;;-1.90;99.90;;;;;;7323380;32;20230;-54
2024/01/19 01:00:00;;;;;;;35.45;18.45;;;-2.00;99.90;;;;;;7325839;32;20137;-55
2024/01/19 01:04:03;;;;;;;32.75;17.85;;;-2.00;99.90;;;;;;7308793;32;20126;-55
2024/01/19 01:08:18;;;;;;;34.72;18.70;;;-2.10;99.90;;;;;;7333456;32;20142;-55
2024/01/19 01:12:21;;;;;;;34.20;18.05;;;-2.10;99.90;;;;;;7332138;32;20609;-55
2024/01/19 01:16:23;;;;;;;37.47;17.92;;;-2.20;99.90;;;;;;7333655;32;21367;-55
2024/01/19 01:20:25;;;;;;;35.60;18.98;;;-2.20;99.90;;;;;;7329940;32;20190;-54
2024/01/19 01:24:27;;;;;;;34.65;19.45;;;-2.20;99.90;;;;;;7338220;32;20166;-55
2024/01/19 01:28:29;;;;;;;39.83;20.27;;;-2.30;99.90;;;;;;7321203;32;20150;-55
2024/01/19 01:32:30;;;;;;;37.95;20.08;;;-2.30;99.90;;;;;;7342199;32;20145;-55
2024/01/19 01:36:32;;;;;;;37.45;21.58;;;-2.30;99.90;;;;;;7337823;32;20133;-55
2024/01/19 01:40:34;;;;;;;49.67;23.85;;;-2.20;99.90;;;;;;7338308;32;20600;-55
2024/01/19 01:44:36;;;;;;;44.33;22.42;;;-2.30;99.90;;;;;;7343721;32;20307;-55
2024/01/19 01:48:38;;;;;;;45.35;22.55;;;-2.30;99.90;;;;;;7328751;32;20130;-55
2024/01/19 01:52:40;;;;;;;43.85;20.67;;;-2.30;99.90;;;;;;7335907;32;20143;-55
2024/01/19 01:56:42;;;;;;;51.08;22.42;;;-2.30;99.90;;;;;;7324889;32;20108;-55
2024/01/19 02:00:45;;;;;;;46.40;22.65;;;-2.30;99.90;;;;;;7343559;32;20334;-55
2024/01/19 02:04:47;;;;;;;53.30;23.42;;;-2.30;99.90;;;;;;7331247;32;20294;-56
2024/01/19 02:08:49;;;;;;;51.40;24.27;;;-2.30;99.90;;;;;;7335574;32;20107;-56
2024/01/19 02:12:50;;;;;;;52.05;22.87;;;-2.30;99.90;;;;;;7339626;32;20395;-55
2024/01/19 02:16:52;;;;;;;46.42;21.73;;;-2.30;99.90;;;;;;7339524;32;20240;-55
2024/01/19 02:20:54;;;;;;;44.80;21.30;;;-2.30;99.90;;;;;;7336294;32;20461;-55
2024/01/19 02:24:56;;;;;;;50.63;25.10;;;-2.20;99.90;;;;;;7326786;32;20202;-55
2024/01/19 02:28:59;;;;;;;50.60;22.77;;;-2.20;99.90;;;;;;7328602;32;20556;-55
2024/01/19 02:33:02;;;;;;;57.67;25.00;;;-2.20;99.90;;;;;;7341262;32;20398;-55
2024/01/19 02:37:04;;;;;;;57.08;25.62;;;-2.20;99.90;;;;;;7348554;32;20138;-55
2024/01/19 02:41:06;;;;;;;63.83;26.55;;;-2.30;99.90;;;;;;7340377;32;20450;-54
2024/01/19 02:45:08;;;;;;;51.13;24.00;;;-2.10;99.90;;;;;;7341464;32;20135;-55
2024/01/19 02:49:10;;;;;;;57.13;24.30;;;-2.10;99.90;;;;;;7341824;32;20162;-55
2024/01/19 02:53:12;;;;;;;59.60;24.98;;;-2.00;99.90;;;;;;7336483;32;20115;-54
2024/01/19 02:57:13;;;;;;;58.45;23.65;;;-1.90;99.90;;;;;;7349928;32;20115;-57
2024/01/19 03:01:15;;;;;;;57.05;24.58;;;-2.00;99.90;;;;;;7338958;32;20119;-55
2024/01/19 03:05:17;;;;;;;50.72;21.45;;;-1.90;99.90;;;;;;7349047;32;20134;-55
2024/01/19 03:09:19;;;;;;;57.55;23.02;;;-1.90;99.90;;;;;;7345254;32;20218;-55
2024/01/19 03:13:21;;;;;;;52.13;22.83;;;-1.90;99.90;;;;;;7345773;32;20192;-55
2024/01/19 03:17:22;;;;;;;54.20;22.50;;;-1.90;99.90;;;;;;7338675;32;20122;-55
2024/01/19 03:21:24;;;;;;;53.85;22.02;;;-1.80;99.90;;;;;;7348223;32;20649;-55
2024/01/19 03:25:26;;;;;;;52.30;21.60;;;-1.80;99.90;;;;;;7328796;32;20238;-55
2024/01/19 03:29:28;;;;;;;54.22;23.15;;;-1.90;99.90;;;;;;7345170;32;20562;-55
2024/01/19 03:33:30;;;;;;;60.75;23.10;;;-1.90;99.90;;;;;;7341467;32;20167;-55
2024/01/19 03:37:33;;;;;;;63.53;24.23;;;-1.80;99.90;;;;;;7340823;32;20504;-55
2024/01/19 03:41:34;;;;;;;61.47;23.90;;;-1.80;99.90;;;;;;7343613;32;20126;-55
2024/01/19 03:45:36;;;;;;;58.20;24.33;;;-1.70;99.90;;;;;;7342774;32;20318;-56
2024/01/19 03:49:39;;;;;;;56.95;22.25;;;-1.60;99.90;;;;;;7343749;32;20134;-56
2024/01/19 03:53:43;;;;;;;54.97;23.98;;;-1.60;99.90;;;;;;7337029;32;20099;-55
2024/01/19 03:57:44;;;;;;;52.85;22.08;;;-1.60;99.90;;;;;;7344605;32;20179;-54
2024/01/19 04:01:46;;;;;;;53.55;22.65;;;-1.50;99.90;;;;;;7345513;32;20526;-54
2024/01/19 04:05:48;;;;;;;53.22;22.52;;;-1.50;99.90;;;;;;7342066;32;20107;-55
2024/01/19 04:09:50;;;;;;;54.92;23.30;;;-1.40;99.90;;;;;;7344240;32;20096;-54
2024/01/19 04:13:52;;;;;;;61.20;24.10;;;-1.40;99.90;;;;;;7339864;32;20100;-55
2024/01/19 04:17:54;;;;;;;66.05;24.70;;;-1.40;99.90;;;;;;7344381;32;20144;-56
2024/01/19 04:21:55;;;;;;;55.15;24.05;;;-1.40;99.90;;;;;;7344258;32;20125;-56
2024/01/19 04:25:57;;;;;;;69.28;26.58;;;-1.30;99.90;;;;;;7342526;32;20210;-56
2024/01/19 04:29:59;;;;;;;62.03;23.80;;;-1.30;99.90;;;;;;7342924;32;20142;-56
2024/01/19 04:34:01;;;;;;;63.67;25.23;;;-1.30;99.90;;;;;;7343688;32;20649;-56
2024/01/19 04:38:03;;;;;;;66.95;25.60;;;-1.30;99.90;;;;;;7348303;32;20152;-56
2024/01/19 04:42:05;;;;;;;60.92;24.50;;;-1.30;99.90;;;;;;7349647;32;20450;-56
2024/01/19 04:46:07;;;;;;;62.65;25.25;;;-1.30;99.90;;;;;;7343399;32;20656;-55
2024/01/19 04:50:09;;;;;;;58.17;24.40;;;-1.30;99.90;;;;;;7337413;32;20107;-56
2024/01/19 04:54:11;;;;;;;62.88;24.37;;;-1.30;99.90;;;;;;7324992;32;20111;-56
2024/01/19 04:58:12;;;;;;;57.50;24.15;;;-1.30;99.90;;;;;;7340064;32;20244;-55
2024/01/19 05:02:14;;;;;;;60.65;22.98;;;-1.20;99.90;;;;;;7338589;32;20103;-54
2024/01/19 05:06:20;;;;;;;60.58;23.77;;;-1.10;99.90;;;;;;7327101;32;20115;-55
2024/01/19 05:10:22;;;;;;;58.00;23.92;;;-1.10;99.90;;;;;;7322599;32;20180;-55
2024/01/19 05:14:24;;;;;;;54.58;21.05;;;-1.00;99.90;;;;;;7342201;32;20121;-54
2024/01/19 05:18:25;;;;;;;58.97;20.73;;;-1.00;99.90;;;;;;7345564;32;20195;-55
2024/01/19 05:22:28;;;;;;;45.42;19.27;;;-1.00;99.90;;;;;;7341700;32;20483;-56
2024/01/19 05:26:30;;;;;;;46.67;20.52;;;-0.90;99.90;;;;;;7338621;32;20133;-55
2024/01/19 05:30:32;;;;;;;49.05;20.30;;;-0.80;99.90;;;;;;7338940;32;20509;-54
2024/01/19 05:34:34;;;;;;;48.60;19.98;;;-0.80;99.90;;;;;;7343251;32;20127;-54
2024/01/19 05:38:36;;;;;;;49.45;20.40;;;-0.80;99.90;;;;;;7333098;32;20194;-54
2024/01/19 05:42:38;;;;;;;51.35;20.92;;;-0.70;99.90;;;;;;7338757;32;20261;-55
2024/01/19 05:46:40;;;;;;;47.83;21.30;;;-0.60;99.90;;;;;;7335083;32;20291;-55
2024/01/19 05:50:42;;;;;;;46.35;19.50;;;-0.50;99.90;;;;;;7339767;32;20513;-55
2024/01/19 05:54:43;;;;;;;50.40;21.00;;;-0.50;99.90;;;;;;7337623;32;20527;-55
2024/01/19 05:58:45;;;;;;;55.35;21.90;;;-0.40;99.90;;;;;;7334589;32;20546;-55
2024/01/19 06:02:47;;;;;;;46.75;20.58;;;-0.40;99.90;;;;;;7339417;32;20258;-55
2024/01/19 06:06:49;;;;;;;47.58;19.87;;;-0.30;99.90;;;;;;7340427;32;20179;-55
2024/01/19 06:10:51;;;;;;;43.17;19.92;;;-0.30;99.90;;;;;;7341515;32;20120;-55
2024/01/19 06:14:52;;;;;;;46.50;20.58;;;-0.40;99.90;;;;;;7341206;32;20151;-55
2024/01/19 06:18:54;;;;;;;53.40;20.62;;;-0.30;99.90;;;;;;7344172;32;21097;-55
2024/01/19 06:22:56;;;;;;;43.75;20.00;;;-0.30;99.90;;;;;;7340571;32;20123;-55
2024/01/19 06:26:58;;;;;;;46.95;20.25;;;-0.20;99.90;;;;;;7333591;32;20258;-55
2024/01/19 06:31:05;;;;;;;45.17;19.70;;;-0.20;99.90;;;;;;7345997;32;20103;-55
2024/01/19 06:35:07;;;;;;;46.05;19.90;;;-0.20;99.90;;;;;;7345955;32;20103;-56
2024/01/19 06:39:09;;;;;;;40.70;19.50;;;-0.20;99.90;;;;;;7343218;32;20244;-56
2024/01/19 06:43:11;;;;;;;39.20;19.20;;;-0.20;99.90;;;;;;7339722;32;20215;-54
2024/01/19 06:47:13;;;;;;;45.00;18.60;;;-0.20;99.90;;;;;;7339962;32;20225;-56
2024/01/19 06:51:23;;;;;;;38.40;19.23;;;-0.20;99.90;;;;;;7345264;32;20171;-55
2024/01/19 06:55:26;;;;;;;40.72;19.12;;;-0.20;99.90;;;;;;7344187;32;20111;-56
2024/01/19 06:59:28;;;;;;;38.67;19.35;;;-0.20;99.90;;;;;;7342291;32;20625;-55
2024/01/19 07:03:30;;;;;;;38.85;19.05;;;-0.20;99.90;;;;;;7342006;32;20143;-55
2024/01/19 07:07:32;;;;;;;35.53;18.55;;;-0.20;99.90;;;;;;7346166;32;20570;-55
2024/01/19 07:11:35;;;;;;;39.15;17.95;;;-0.20;99.90;;;;;;7341611;32;20179;-56
2024/01/19 07:15:37;;;;;;;36.03;17.55;;;-0.20;99.90;;;;;;7339649;32;20157;-56
2024/01/19 07:19:38;;;;;;;38.20;18.30;;;-0.20;99.90;;;;;;7340087;32;20249;-58
2024/01/19 07:23:40;;;;;;;39.30;18.02;;;-0.20;99.90;;;;;;7334411;32;20095;-56
2024/01/19 07:27:42;;;;;;;35.20;18.33;;;-0.10;99.90;;;;;;7342165;32;20111;-56
2024/01/19 07:31:44;;;;;;;41.72;18.73;;;-0.10;99.90;;;;;;7337649;32;20167;-57
2024/01/19 07:35:46;;;;;;;35.42;18.70;;;-0.10;99.90;;;;;;7337748;32;20521;-57
2024/01/19 07:39:48;;;;;;;32.28;16.35;;;-0.10;99.90;;;;;;7345900;32;20224;-58
2024/01/19 07:43:49;;;;;;;29.45;16.40;;;-0.20;99.90;;;;;;7323204;32;20309;-56
2024/01/19 07:47:51;;;;;;;35.95;16.90;;;-0.20;99.90;;;;;;7290649;32;20263;-57
2024/01/19 07:51:53;;;;;;;37.97;18.08;;;-0.30;99.90;;;;;;7290453;32;20290;-57
2024/01/19 07:55:55;;;;;;;35.13;18.02;;;-0.30;99.90;;;;;;7290009;32;20867;-56
2024/01/19 07:59:57;;;;;;;34.10;18.77;;;-0.30;99.90;;;;;;7291640;32;23743;-56
2024/01/19 08:03:58;;;;;;;34.72;18.85;;;-0.30;99.90;;;;;;7288221;32;20289;-56
2024/01/19 08:08:00;;;;;;;40.60;19.70;;;-0.20;99.90;;;;;;7290975;32;20246;-57
2024/01/19 08:12:02;;;;;;;35.35;17.40;;;-0.20;99.90;;;;;;7288089;32;20842;-57
2024/01/19 08:16:06;;;;;;;33.80;18.98;;;-0.30;99.90;;;;;;7290777;32;20170;-56
2024/01/19 08:20:11;;;;;;;35.38;17.70;;;-0.20;99.90;;;;;;7309841;32;20151;-57
2024/01/19 08:24:13;;;;;;;35.17;18.67;;;-0.20;99.90;;;;;;7330993;32;20092;-58
2024/01/19 08:28:15;;;;;;;29.25;16.58;;;-0.20;99.90;;;;;;7334308;32;20775;-56
2024/01/19 08:32:16;;;;;;;37.78;18.55;;;-0.20;99.90;;;;;;7343443;32;20403;-59
2024/01/19 08:36:23;;;;;;;36.95;18.05;;;-0.30;99.90;;;;;;7339185;32;20335;-57
2024/01/19 08:40:25;;;;;;;31.42;17.42;;;-0.20;99.90;;;;;;7336875;32;20309;-58
2024/01/19 08:44:27;;;;;;;35.15;18.05;;;-0.30;99.90;;;;;;7337531;32;20173;-59
2024/01/19 08:48:31;;;;;;;37.50;18.92;;;-0.20;99.90;;;;;;7336929;32;20241;-57
2024/01/19 08:52:33;;;;;;;33.13;18.40;;;-0.20;99.90;;;;;;7342103;32;20728;-58
2024/01/19 08:56:34;;;;;;;35.95;18.52;;;-0.20;99.90;;;;;;7338909;32;20203;-56
2024/01/19 09:00:43;;;;;;;34.40;18.80;;;-0.20;99.90;;;;;;7336215;32;20153;-64
2024/01/19 09:04:45;;;;;;;37.00;17.75;;;0.00;99.90;;;;;;7345388;32;20217;-61
2024/01/19 09:08:47;;;;;;;42.38;19.65;;;0.10;99.90;;;;;;7337434;32;20539;-56
2024/01/19 09:12:49;;;;;;;36.83;20.05;;;0.00;99.90;;;;;;7327806;32;20237;-58
2024/01/19 09:16:50;;;;;;;39.83;20.35;;;0.00;99.90;;;;;;7342800;32;20142;-57
2024/01/19 09:20:52;;;;;;;35.42;19.05;;;-0.10;99.90;;;;;;7331190;32;20095;-57
2024/01/19 09:24:54;;;;;;;36.47;19.02;;;-0.10;99.90;;;;;;7345895;32;20288;-57
2024/01/19 09:28:56;;;;;;;36.17;18.58;;;-0.10;99.90;;;;;;7337976;32;20221;-57
2024/01/19 09:32:57;;;;;;;32.90;19.23;;;0.00;99.90;;;;;;7339806;32;20249;-56
2024/01/19 09:36:59;;;;;;;41.20;19.85;;;0.10;99.90;;;;;;7337192;32;20321;-57
2024/01/19 09:41:19;;;;;;;38.22;18.50;;;0.10;99.90;;;;;;7347683;32;20122;-56
2024/01/19 09:45:23;;;;;;;37.42;18.62;;;0.20;99.90;;;;;;7343721;32;20146;-56
2024/01/19 09:49:28;;;;;;;36.05;18.95;;;0.20;99.90;;;;;;7342106;32;20898;-58
2024/01/19 09:53:34;;;;;;;39.53;19.10;;;0.20;99.90;;;;;;7342832;32;20260;-56
2024/01/19 09:57:46;;;;;;;39.20;19.83;;;0.20;99.90;;;;;;7344307;32;20126;-55
2024/01/19 10:01:52;;;;;;;31.33;17.87;;;0.20;99.90;;;;;;7347591;32;20541;-56
2024/01/19 10:05:54;;;;;;;33.17;17.75;;;0.30;99.90;;;;;;7344838;32;20127;-57
2024/01/19 10:09:56;;;;;;;32.53;17.17;;;0.30;99.90;;;;;;7345666;32;20135;-57
2024/01/19 10:13:58;;;;;;;38.20;18.40;;;0.40;99.90;;;;;;7340142;32;20258;-56
2024/01/19 10:18:00;;;;;;;33.17;17.70;;;0.50;99.90;;;;;;7348330;32;20229;-57
2024/01/19 10:22:27;;;;;;;37.95;18.75;;;0.60;99.90;;;;;;7345498;32;20122;-60
2024/01/19 10:26:29;;;;;;;37.80;17.12;;;0.70;99.90;;;;;;7344765;32;20103;-56
2024/01/19 10:30:31;;;;;;;32.60;17.77;;;0.70;99.90;;;;;;7345270;32;22201;-57
2024/01/19 10:34:32;;;;;;;29.17;16.30;;;0.70;99.90;;;;;;7347254;32;20494;-56
2024/01/19 10:38:34;;;;;;;33.90;16.37;;;0.70;99.90;;;;;;7332276;32;20152;-56
2024/01/19 10:42:41;;;;;;;34.10;16.33;;;0.50;99.90;;;;;;7348298;32;20177;-61
2024/01/19 10:46:43;;;;;;;28.50;16.33;;;0.60;99.90;;;;;;7350393;32;20223;-56
2024/01/19 10:50:44;;;;;;;34.78;17.23;;;0.90;99.90;;;;;;7347514;32;20160;-58
2024/01/19 10:54:49;;;;;;;28.85;16.52;;;1.00;99.90;;;;;;7347233;32;20289;-57
2024/01/19 10:58:50;;;;;;;33.83;17.10;;;1.20;99.90;;;;;;7347591;32;20270;-58
2024/01/19 11:02:57;;;;;;;36.90;17.42;;;1.20;99.90;;;;;;7346192;32;20445;-62
2024/01/19 11:07:00;;;;;;;31.00;17.05;;;1.20;99.90;;;;;;7339648;32;20178;-59
2024/01/19 11:11:05;;;;;;;31.42;17.10;;;1.10;99.90;;;;;;7333425;32;20121;-57
2024/01/19 11:15:13;;;;;;;35.83;17.15;;;1.00;99.90;;;;;;7336810;32;20172;-59
2024/01/19 11:19:17;;;;;;;31.35;16.52;;;0.90;99.90;;;;;;7341312;32;20185;-56
2024/01/19 11:23:19;;;;;;;30.45;15.38;;;0.90;99.90;;;;;;7342337;32;20103;-59
2024/01/19 11:27:41;;;;;;;31.23;16.42;;;0.90;99.90;;;;;;7340584;32;20492;-56
2024/01/19 11:31:44;;;;;;;31.00;15.98;;;1.00;99.90;;;;;;7338936;32;20174;-57
2024/01/19 11:35:48;;;;;;;33.10;16.85;;;1.10;99.90;;;;;;7344687;32;20123;-57
2024/01/19 11:39:50;;;;;;;32.45;17.08;;;0.80;99.90;;;;;;7339271;32;20198;-57
2024/01/19 11:43:52;;;;;;;36.95;18.00;;;0.90;99.90;;;;;;7345522;32;20115;-58
2024/01/19 11:47:57;;;;;;;30.02;15.98;;;0.80;99.90;;;;;;7348625;32;20123;-60
2024/01/19 11:52:01;;;;;;;35.55;16.08;;;0.80;99.90;;;;;;7338503;32;20200;-56
2024/01/19 11:56:21;;;;;;;35.50;17.23;;;0.90;99.90;;;;;;7340367;32;20222;-56
2024/01/19 12:00:23;;;;;;;35.60;17.23;;;1.00;99.90;;;;;;7345416;32;20234;-57
2024/01/19 12:04:26;;;;;;;34.30;17.17;;;1.10;99.90;;;;;;7339615;32;20119;-56
2024/01/19 12:08:28;;;;;;;33.90;17.15;;;1.00;99.90;;;;;;7333880;32;20126;-57
2024/01/19 12:12:32;;;;;;;36.28;16.55;;;1.10;99.90;;;;;;7336156;32;20160;-57
2024/01/19 12:16:35;;;;;;;35.55;19.00;;;1.10;99.90;;;;;;7338540;32;20233;-57
2024/01/19 12:20:37;;;;;;;33.97;17.00;;;1.10;99.90;;;;;;7342681;32;20786;-57
2024/01/19 12:24:39;;;;;;;40.97;17.55;;;1.10;99.90;;;;;;7342968;32;20332;-57
2024/01/19 12:28:40;;;;;;;37.00;18.35;;;1.00;99.90;;;;;;7333454;32;20237;-57
2024/01/19 12:32:44;;;;;;;32.65;15.30;;;1.00;99.90;;;;;;7333382;32;20107;-57
2024/01/19 12:36:46;;;;;;;38.78;17.55;;;0.90;99.90;;;;;;7342727;32;20441;-58
2024/01/19 12:40:48;;;;;;;36.20;17.77;;;1.10;99.90;;;;;;7337179;32;20173;-60
2024/01/19 12:44:53;;;;;;;35.70;17.05;;;1.20;99.90;;;;;;7335095;32;20091;-58
2024/01/19 12:49:00;;;;;;;32.88;16.73;;;1.20;99.90;;;;;;7332663;32;20237;-56
2024/01/19 12:53:01;;;;;;;31.45;16.62;;;1.20;99.90;;;;;;7333659;32;20297;-56
2024/01/19 12:57:04;;;;;;;34.30;16.62;;;1.30;99.90;;;;;;7338239;32;20234;-58
2024/01/19 13:01:06;;;;;;;35.58;16.95;;;1.10;99.90;;;;;;7336977;32;20508;-63
2024/01/19 13:05:28;;;;;;;36.72;16.17;;;1.10;99.90;;;;;;7338822;32;20543;-57
2024/01/19 13:09:30;;;;;;;30.73;15.15;;;1.20;99.90;;;;;;7342323;32;20119;-58
2024/01/19 13:13:32;;;;;;;31.62;15.35;;;1.30;99.90;;;;;;7340377;32;20221;-61
2024/01/19 13:17:44;;;;;;;30.88;15.48;;;1.40;99.90;;;;;;7338490;32;20391;-57
2024/01/19 13:21:46;;;;;;;29.67;15.68;;;1.40;99.90;;;;;;7336872;32;20159;-55
2024/01/19 13:25:54;;;;;;;28.75;15.98;;;1.50;99.90;;;;;;7335674;32;20167;-56
2024/01/19 13:29:56;;;;;;;34.28;17.45;;;1.60;99.90;;;;;;7338518;32;20533;-61
2024/01/19 13:33:58;;;;;;;29.25;15.90;;;1.60;99.90;;;;;;7327574;32;20252;-56
2024/01/19 13:38:00;;;;;;;34.88;15.98;;;1.60;99.90;;;;;;7339156;32;20145;-57
2024/01/19 13:42:02;;;;;;;30.25;15.25;;;1.70;99.90;;;;;;7335671;32;20135;-58
2024/01/19 13:46:04;;;;;;;32.88;16.87;;;1.80;99.90;;;;;;7340087;32;20302;-57
2024/01/19 13:50:06;;;;;;;32.97;16.10;;;1.90;99.90;;;;;;7335830;32;20139;-57
2024/01/19 13:54:08;;;;;;;32.38;16.50;;;1.90;99.90;;;;;;7343764;32;20226;-57
2024/01/19 13:58:10;;;;;;;28.48;15.10;;;1.80;99.90;;;;;;7337495;32;20142;-58
2024/01/19 14:02:14;;;;;;;34.40;17.00;;;1.70;99.90;;;;;;7337659;32;20201;-56
2024/01/19 14:06:16;;;;;;;32.33;15.98;;;1.70;99.90;;;;;;7339710;32;20161;-57
2024/01/19 14:10:18;;;;;;;32.60;15.85;;;1.70;99.90;;;;;;7341596;32;20131;-57
2024/01/19 14:14:33;;;;;;;34.53;16.33;;;1.60;99.90;;;;;;7336369;32;20095;-58
2024/01/19 14:18:36;;;;;;;33.63;15.25;;;1.70;99.90;;;;;;7337113;32;20241;-56
2024/01/19 14:22:41;;;;;;;31.98;15.48;;;1.80;99.90;;;;;;7334672;32;20237;-58
2024/01/19 14:26:45;;;;;;;28.83;14.02;;;1.90;99.90;;;;;;7348114;32;20313;-62
2024/01/19 14:30:47;;;;;;;27.42;14.77;;;2.00;99.90;;;;;;7336825;32;20153;-58
2024/01/19 14:34:49;;;;;;;28.48;13.48;;;2.00;99.90;;;;;;7336778;32;20218;-58
2024/01/19 14:38:58;;;;;;;28.73;14.05;;;1.90;99.90;;;;;;7337716;32;20233;-58
2024/01/19 14:42:59;;;;;;;33.10;14.90;;;1.80;99.90;;;;;;7343360;32;20224;-57
2024/01/19 14:47:03;;;;;;;28.90;13.38;;;1.80;99.90;;;;;;7337714;32;20222;-60
2024/01/19 14:51:05;;;;;;;32.28;15.43;;;1.60;99.90;;;;;;7335018;32;20273;-57
2024/01/19 14:55:09;;;;;;;26.95;14.27;;;1.50;99.90;;;;;;7339413;32;20123;-59
2024/01/19 14:59:11;;;;;;;29.98;14.55;;;1.50;99.90;;;;;;7342727;32;20140;-59
2024/01/19 15:03:13;;;;;;;26.75;14.32;;;1.40;99.90;;;;;;7338399;32;20111;-58
2024/01/19 15:07:16;;;;;;;26.23;13.95;;;1.20;99.90;;;;;;7338535;32;20196;-59
2024/01/19 15:11:18;;;;;;;27.55;14.30;;;1.20;99.90;;;;;;7339797;32;20797;-57
2024/01/19 15:15:20;;;;;;;30.80;14.50;;;1.10;99.90;;;;;;7335627;32;20323;-57
2024/01/19 15:19:21;;;;;;;25.73;13.77;;;1.00;99.90;;;;;;7335511;32;20715;-56
2024/01/19 15:23:23;;;;;;;28.08;14.30;;;0.90;99.90;;;;;;7332579;32;20104;-58
2024/01/19 15:27:25;;;;;;;27.58;13.55;;;0.80;99.90;;;;;;7336666;32;20175;-56
2024/01/19 15:31:27;;;;;;;29.85;14.13;;;0.70;99.90;;;;;;7339308;32;20301;-59
2024/01/19 15:35:29;;;;;;;30.45;14.75;;;0.70;99.90;;;;;;7344311;32;20130;-60
2024/01/19 15:39:30;;;;;;;24.35;13.70;;;0.70;99.90;;;;;;7346966;32;20157;-57
2024/01/19 15:43:32;;;;;;;35.92;15.90;;;0.60;99.90;;;;;;7351165;32;20215;-59
2024/01/19 15:47:37;;;;;;;37.05;14.93;;;0.50;99.90;;;;;;7349634;32;20107;-57
2024/01/19 15:51:38;;;;;;;24.87;13.65;;;0.40;99.90;;;;;;7348358;32;20103;-56
2024/01/19 15:55:40;;;;;;;29.10;14.50;;;0.20;99.90;;;;;;7349640;32;20125;-59
2024/01/19 15:59:45;;;;;;;30.20;15.23;;;0.10;99.90;;;;;;7341618;32;20473;-57
2024/01/19 16:03:48;;;;;;;32.97;16.20;;;0.00;99.90;;;;;;7341880;32;20107;-57
2024/01/19 16:07:50;;;;;;;29.73;15.10;;;0.00;99.90;;;;;;7344763;32;20130;-57
2024/01/19 16:11:52;;;;;;;35.40;15.98;;;-0.20;99.90;;;;;;7340360;32;20352;-56
2024/01/19 16:15:53;;;;;;;35.35;16.35;;;-0.10;99.90;;;;;;7331368;32;20175;-57
2024/01/19 16:19:55;;;;;;;30.77;15.43;;;-0.20;99.90;;;;;;7330390;32;20212;-56
2024/01/19 16:23:58;;;;;;;30.37;16.27;;;-0.40;99.90;;;;;;7338036;32;20185;-56
2024/01/19 16:28:00;;;;;;;31.55;15.95;;;-0.40;99.90;;;;;;7339066;32;20159;-56
2024/01/19 16:32:02;;;;;;;30.40;14.68;;;-0.50;99.90;;;;;;7340103;32;20300;-59
2024/01/19 16:36:06;;;;;;;28.10;15.57;;;-0.40;99.90;;;;;;7341377;32;20158;-56
2024/01/19 16:40:09;;;;;;;34.38;14.93;;;-0.50;99.90;;;;;;7341870;32;20157;-57
2024/01/19 16:44:11;;;;;;;33.88;17.02;;;-0.60;99.90;;;;;;7342362;32;20229;-57
2024/01/19 16:48:13;;;;;;;31.83;15.48;;;-0.60;99.90;;;;;;7336409;32;20779;-57
2024/01/19 16:52:15;;;;;;;29.70;15.93;;;-0.70;99.90;;;;;;7340288;32;20225;-56
2024/01/19 16:56:17;;;;;;;29.75;15.52;;;-0.90;99.90;;;;;;7335325;32;20316;-56
2024/01/19 17:00:20;;;;;;;36.50;16.73;;;-1.00;99.90;;;;;;7336389;32;20115;-55
2024/01/19 17:04:21;;;;;;;33.38;16.77;;;-1.10;99.90;;;;;;7338278;32;20218;-56
2024/01/19 17:08:23;;;;;;;41.33;17.30;;;-1.10;99.90;;;;;;7339320;32;20305;-56
2024/01/19 17:12:25;;;;;;;32.85;15.27;;;-1.20;99.90;;;;;;7343071;32;20195;-57
2024/01/19 17:16:27;;;;;;;38.80;17.80;;;-1.20;99.90;;;;;;7342043;32;20225;-56
2024/01/19 17:20:28;;;;;;;37.03;17.25;;;-1.20;99.90;;;;;;7337432;32;20717;-57
2024/01/19 17:24:30;;;;;;;44.47;19.95;;;-1.30;99.90;;;;;;7341391;32;20129;-55
2024/01/19 17:28:34;;;;;;;39.28;18.08;;;-1.20;99.90;;;;;;7334277;32;20694;-55
2024/01/19 17:32:36;;;;;;;36.33;17.00;;;-1.10;99.90;;;;;;7337038;32;20781;-56
2024/01/19 17:36:38;;;;;;;36.58;16.90;;;-1.10;99.90;;;;;;7342423;32;20210;-56
2024/01/19 17:40:41;;;;;;;34.80;18.08;;;-1.10;99.90;;;;;;7331948;32;20293;-57
2024/01/19 17:44:45;;;;;;;32.67;16.75;;;-1.20;99.90;;;;;;7339690;32;20240;-56
2024/01/19 17:48:47;;;;;;;35.38;16.50;;;-1.20;99.90;;;;;;7340351;32;20747;-57
2024/01/19 17:52:50;;;;;;;33.33;16.55;;;-1.30;99.90;;;;;;7341738;32;20214;-56
2024/01/19 17:56:52;;;;;;;33.35;17.12;;;-1.30;99.90;;;;;;7341670;32;20137;-56
2024/01/19 18:00:53;;;;;;;41.53;17.00;;;-1.30;99.90;;;;;;7341297;32;20228;-56
2024/01/19 18:04:56;;;;;;;36.30;16.37;;;-1.20;99.90;;;;;;7354721;32;20220;-57
2024/01/19 18:08:58;;;;;;;35.92;16.75;;;-1.20;99.90;;;;;;7348131;32;20132;-56
2024/01/19 18:13:00;;;;;;;40.47;18.37;;;-1.30;99.90;;;;;;7353424;32;20729;-57
2024/01/19 18:17:02;;;;;;;36.33;16.60;;;-1.20;99.90;;;;;;7353245;32;20118;-56
2024/01/19 18:21:04;;;;;;;36.80;17.50;;;-1.20;99.90;;;;;;7340110;32;20217;-56
2024/01/19 18:25:07;;;;;;;44.08;20.65;;;-1.20;99.90;;;;;;7354402;32;20111;-58
2024/01/19 18:29:09;;;;;;;39.70;18.45;;;-1.20;99.90;;;;;;7339941;32;20129;-57
2024/01/19 18:33:11;;;;;;;35.05;17.75;;;-1.20;99.90;;;;;;7348904;32;20135;-57
2024/01/19 18:37:13;;;;;;;34.85;16.52;;;-1.10;99.90;;;;;;7346125;32;20174;-56
2024/01/19 18:41:15;;;;;;;34.03;16.30;;;-1.10;99.90;;;;;;7354007;32;20145;-56
2024/01/19 18:45:17;;;;;;;35.80;16.58;;;-1.10;99.90;;;;;;7351683;32;20201;-59
2024/01/19 18:49:19;;;;;;;30.58;15.63;;;-1.20;99.90;;;;;;7339540;32;20111;-58
2024/01/19 18:53:20;;;;;;;34.47;16.73;;;-1.30;99.90;;;;;;7341964;32;21012;-57
2024/01/19 18:57:22;;;;;;;30.67;15.15;;;-1.40;99.90;;;;;;7344413;32;20122;-57
2024/01/19 19:01:25;;;;;;;35.03;16.27;;;-1.40;99.90;;;;;;7345262;32;20186;-57
2024/01/19 19:05:28;;;;;;;36.20;18.23;;;-1.30;99.90;;;;;;7349381;32;20118;-57
2024/01/19 19:09:31;;;;;;;30.55;15.52;;;-1.40;99.90;;;;;;7343624;32;20103;-57
2024/01/19 19:13:33;;;;;;;40.92;16.35;;;-1.40;99.90;;;;;;7344186;32;20118;-56
2024/01/19 19:17:37;;;;;;;38.63;16.73;;;-1.40;99.90;;;;;;7344167;32;20300;-56
2024/01/19 19:21:39;;;;;;;33.65;15.30;;;-1.50;99.90;;;;;;7344324;32;20152;-56
2024/01/19 19:25:41;;;;;;;36.97;17.05;;;-1.60;99.90;;;;;;7343043;32;20206;-57
2024/01/19 19:29:43;;;;;;;36.00;17.23;;;-1.50;99.90;;;;;;7347388;32;20505;-55
2024/01/19 19:33:46;;;;;;;35.97;16.45;;;-1.60;99.90;;;;;;7345458;32;20230;-56
2024/01/19 19:37:48;;;;;;;32.63;15.57;;;-1.80;99.90;;;;;;7345120;32;20207;-55
2024/01/19 19:41:50;;;;;;;33.15;15.15;;;-1.80;99.90;;;;;;7342791;32;20149;-55
2024/01/19 19:45:52;;;;;;;35.25;16.77;;;-1.80;99.90;;;;;;7340849;32;20115;-55
2024/01/19 19:49:54;;;;;;;34.05;15.43;;;-1.80;99.90;;;;;;7344998;32;20104;-54
2024/01/19 19:53:55;;;;;;;32.80;16.67;;;-1.70;99.90;;;;;;7342814;32;20218;-56
2024/01/19 19:57:57;;;;;;;35.05;15.90;;;-1.70;99.90;;;;;;7342701;32;20498;-56
2024/01/19 20:01:59;;;;;;;38.30;15.52;;;-1.80;99.90;;;;;;7344334;32;20137;-56
2024/01/19 20:06:01;;;;;;;38.22;14.25;;;-1.80;99.90;;;;;;7340011;32;20556;-55
2024/01/19 20:10:03;;;;;;;38.95;15.52;;;-1.70;99.90;;;;;;7341468;32;20611;-57
2024/01/19 20:14:05;;;;;;;32.45;14.25;;;-1.70;99.90;;;;;;7346905;32;20131;-56
2024/01/19 20:18:07;;;;;;;38.63;17.73;;;-1.60;99.90;;;;;;7337049;32;20287;-57
2024/01/19 20:22:10;;;;;;;32.75;15.95;;;-1.40;99.90;;;;;;7338419;32;20131;-56
2024/01/19 20:26:15;;;;;;;30.02;15.30;;;-1.30;99.90;;;;;;7339236;32;20095;-55
2024/01/19 20:30:17;;;;;;;31.80;15.35;;;-1.20;99.90;;;;;;7342336;32;20133;-56
2024/01/19 20:34:20;;;;;;;31.35;14.93;;;-1.20;99.90;;;;;;7346204;32;20107;-56
2024/01/19 20:38:23;;;;;;;27.20;14.35;;;-1.20;99.90;;;;;;7340876;32;20125;-56